Terminal Aerodrome Forecast
Issued by NWS Wilmington, OH

Current Version | Previous Version | Text Only | Print | Product List | Glossary Off
Versions: 1 2 3 4 5 6 7 8 9 10 11 12 13 14 15 16 17 18 19

000
FTUS41 KILN 282057 AAA
TAFCMH
TAF AMD
KCMH 282057Z 2821/2918 11004KT P6SM FEW060 BKN250
     FM290000 09004KT P6SM BKN250
     FM291300 15004KT P6SM SCT040 BKN200
     FM291600 19007KT P6SM BKN040=

USA.gov is the U.S. government's official web portal to all federal, state and local government web resources and services.